Latest Coastal Weather Observations for Maatsuyker Island

IDT60701

Issued at 8:42 am EST Wednesday 29 May 2024 (issued every 10 minutes, with the page automatically refreshed every 10 minutes)

About coastal observations | Map of coastal stations | Coastal observations for TAS | Marine services | Other Formats
Station Details ID: 094041 Name: MAATSUYKER ISLAND LIGHTHOUSE Lat: -43.66 Lon: 146.27 Height: 146.5 m
Data from the previous 72 hours. | See also: Recent months at Maatsuyker Island
Date/Time
EST
Wind Sea
Height
m
Swell Vis
km
Cloud Weather Temp
°C
Press
MSL
hPa
Rain since
9am
mm
Dir  Spd
kts
Gust
kts
Height
m
Period
s
Dir
29/08:30am NNW 26 34 - - - - - - - 15.3 1016.4 0.0
29/08:03am NNW 25 35 - - - - - - - 15.5 1016.4 0.0
29/08:00am NNW 25 33 - - - - - - - 15.4 1016.4 0.0
29/07:40am NNW 27 37 - - - - - - - 15.6 1016.0 0.0
29/07:30am NNW 28 35 - - - - - - - 15.6 1016.0 0.0
29/07:10am NNW 28 41 - - - - - - - 15.8 1015.8 0.0
29/07:00am NNW 29 38 - - - - - - - 15.7 1015.8 0.0
29/06:31am NNW 29 40 - - - - - - - 16.1 1015.5 0.0
29/06:30am NNW 29 38 - - - - - - - 15.8 1015.7 0.0
29/06:15am NNW 28 38 - - - - - - - 15.7 1015.7 0.0
29/06:00am NNW 29 36 2 3.0 14 SW 22 - - 16.0 1015.5 0.0
29/05:32am NNW 29 40 - - - - - - - 15.7 1015.5 0.0
29/05:30am NNW 28 36 - - - - - - - 15.7 1015.6 0.0
29/05:00am NNW 27 37 - - - - - - - 15.6 1015.8 0.0
29/04:43am NNW 28 38 - - - - - - - 15.6 1015.7 0.0
29/04:30am NNW 30 37 - - - - - - - 15.6 1015.6 0.0
29/04:03am NNW 29 39 - - - - - - - 15.7 1015.6 0.0
29/04:00am NNW 29 37 - - - - - - - 15.5 1015.6 0.0
29/03:40am NNW 30 40 - - - - - - - 15.7 1015.7 0.0
29/03:30am NNW 31 39 - - - - - - - 15.5 1015.7 0.0
29/03:01am NNW 30 40 - - - - - - - 15.5 1016.0 0.0
29/03:00am NNW 30 38 - - - - - - - 15.4 1015.9 0.0
29/02:45am NNW 30 40 - - - - - - - 15.3 1016.0 0.0
29/02:30am NNW 31 39 - - - - - - - 15.4 1016.0 0.0
29/02:00am NNW 29 40 - - - - - - - 15.5 1016.1 0.0
29/01:30am NNW 27 39 - - - - - - - 15.5 1016.2 0.0
29/01:26am NNW 28 39 - - - - - - - 15.3 1016.1 0.0
29/01:00am NNW 26 35 - - - - - - - 15.4 1016.3 0.0
29/12:39am NNW 28 38 - - - - - - - 15.3 1016.4 0.0
29/12:30am NNW 27 35 - - - - - - - 15.2 1016.7 0.0
29/12:19am NNW 27 37 - - - - - - - 15.1 1016.5 0.0
29/12:00am NNW 28 36 - - - - - - - 15.1 1016.7 0.0
 
Date/Time
EST
Wind Sea
Height
m
Swell Vis
km
Cloud Weather Temp
°C
Press
MSL
hPa
Rain since
9am
mm
Dir  Spd
kts
Gust
kts
Height
m
Period
s
Dir
28/11:30pm NNW 26 33 - - - - - - - 14.6 1016.9 0.0
28/11:07pm NNW 24 34 - - - - - - - 14.3 1017.0 0.0
28/11:00pm NNW 24 32 - - - - - - - 14.2 1017.0 0.0
28/10:30pm NNW 24 33 - - - - - - - 14.2 1017.3 0.0
28/10:20pm NNW 23 33 - - - - - - - 14.2 1017.4 0.0
28/10:00pm NNW 21 28 - - - - - - - 13.9 1017.6 0.0
28/09:30pm NNW 22 27 - - - - - - - 13.7 1018.0 0.0
28/09:00pm NNW 20 24 - - - - - - - 13.7 1018.2 0.0
28/08:30pm NNW 18 24 - - - - - - - 13.9 1018.4 0.0
28/08:00pm NNW 18 23 - - - - - - - 14.0 1018.9 0.0
28/07:30pm NNW 19 25 - - - - - - - 14.0 1018.9 0.0
28/07:00pm NNW 19 23 - - - - - - - 13.7 1019.0 0.0
28/06:30pm NNW 18 22 - - - - - - - 13.5 1019.3 0.0
28/06:00pm NNW 17 22 - - - - - - - 13.3 1019.3 0.0
28/05:30pm NNW 15 19 - - - - - - - 13.0 1019.2 0.0
28/05:00pm NNW 13 17 - - - - - - - 12.4 1019.4 0.0
28/04:30pm NNW 13 17 - - - - - - - 12.5 1019.9 0.0
28/04:00pm NNW 11 14 - - - - - - - 12.5 1020.2 0.0
28/03:30pm NNW 11 14 - - - - - - - 12.4 1019.8 0.0
28/03:00pm N 14 16 - - - - - - - 12.3 1019.8 0.0
28/02:30pm N 18 19 - - - - - - - 12.6 1019.7 0.0
28/02:00pm N 17 18 - - - - - - - 13.3 1019.9 0.0
28/01:30pm N 18 21 - - - - - - - 12.9 1019.9 0.0
28/01:00pm N 21 23 - - - - - - - 12.5 1019.9 0.0
28/12:30pm N 21 24 - - - - - - - 12.6 1020.2 0.0
28/12:00pm N 23 26 - - - - - - - 11.7 1020.4 0.0
28/11:30am NNW 22 24 - - - - - - - 11.7 1020.7 0.0
28/11:28am N 22 24 - - - - - - - 11.9 1020.7 0.0
28/11:23am N 23 27 - - - - - - - 12.0 1020.8 0.0
28/11:13am N 23 26 - - - - - - - 11.9 1020.8 0.0
28/11:10am NNW 24 26 - - - - - - - 11.6 1020.9 0.0
28/11:07am NNW 23 26 - - - - - - - 11.7 1020.9 0.0
28/11:00am NNW 24 28 - - - - - - - 11.9 1020.9 0.0
28/10:30am NNW 23 26 - - - - - - - 11.4 1020.9 0.0
28/10:00am NNW 24 27 - - - - - - - 11.4 1020.9 0.0
28/09:30am N 26 29 - - - - - - - 11.3 1020.8 0.0
28/09:23am NNW 25 28 - - - - - - - 11.3 1020.7 0.0
28/09:18am N 25 27 - - - - - - - 11.3 1020.9 0.0
28/09:00am NW 24 28 1 2.0 13 SW 14 Mostly cloudy Haze 11.3 1020.7 4.0
28/08:49am NNW 25 28 - - - - - - - 11.3 1020.8 4.0
28/08:46am NNW 25 28 - - - - - - - 11.3 1020.6 4.0
28/08:38am NNW 25 28 - - - - - - - 11.2 1020.5 4.0
28/08:30am NNW 26 30 - - - - - - - 11.3 1020.3 4.0
28/08:22am NW 26 30 - - - - - - - 11.2 1020.0 4.0
28/08:00am WNW 25 27 - - - - - - - 11.2 1020.3 4.0
28/07:30am WNW 24 28 - - - - - - - 10.9 1019.9 4.0
28/07:00am WNW 23 28 - - - - - - - 11.0 1019.5 4.0
28/06:30am WNW 27 32 - - - - - - - 11.1 1018.8 4.0
28/06:00am WNW 28 32 2 2.0 14 SW 5 Mostly cloudy Mist 11.3 1018.4 4.0
28/05:30am WNW 31 37 - - - - - - - 11.6 1017.7 4.0
28/05:00am WNW 33 39 - - - - - - - 11.6 1017.1 4.0
28/04:46am NW 41 50 - - - - - - - 11.6 1016.6 4.0
28/04:40am N 40 50 - - - - - - - 12.3 1016.4 3.4
28/04:39am N 40 50 - - - - - - - 12.9 1015.9 2.8
28/04:30am N 39 47 - - - - - - - 12.8 1014.7 2.0
28/04:28am N 39 49 - - - - - - - 12.8 1014.8 2.0
28/04:00am N 40 48 - - - - - - - 12.7 1014.3 1.4
28/03:30am N 41 52 - - - - - - - 12.6 1014.3 0.4
28/03:02am N 40 52 - - - - - - - 13.1 1014.5 0.0
28/03:00am N 39 47 - - - - - - - 13.1 1014.7 0.0
28/02:35am N 38 48 - - - - - - - 13.0 1014.7 0.0
28/02:30am N 39 48 - - - - - - - 13.2 1014.7 0.0
28/02:03am NNW 33 43 - - - - - - - 13.1 1014.9 0.0
28/02:00am NNW 33 40 - - - - - - - 13.1 1015.0 0.0
28/01:45am NNW 33 43 - - - - - - - 13.0 1015.1 0.0
28/01:30am NNW 25 35 - - - - - - - 12.7 1015.6 0.0
28/01:04am N 28 38 - - - - - - - 12.7 1015.7 0.0
28/01:00am N 30 39 - - - - - - - 12.7 1015.7 0.0
28/12:47am NNW 27 37 - - - - - - - 12.7 1015.7 0.0
28/12:30am NNW 25 32 - - - - - - - 12.6 1016.0 0.0
28/12:02am NNW 28 38 - - - - - - - 12.7 1016.1 0.0
28/12:00am NNW 29 38 - - - - - - - 12.8 1015.9 0.0
 
Date/Time
EST
Wind Sea
Height
m
Swell Vis
km
Cloud Weather Temp
°C
Press
MSL
hPa
Rain since
9am
mm
Dir  Spd
kts
Gust
kts
Height
m
Period
s
Dir
27/11:30pm NNW 25 35 - - - - - - - 12.4 1016.3 0.0
27/11:00pm NNW 28 38 - - - - - - - 12.4 1016.3 0.0
27/10:38pm N 30 40 - - - - - - - 12.6 1016.1 0.0
27/10:30pm NNW 31 40 - - - - - - - 12.5 1016.3 0.0
27/10:17pm N 35 45 - - - - - - - 12.6 1016.1 0.0
27/10:00pm N 37 45 - - - - - - - 12.6 1015.7 0.0
27/09:30pm N 37 45 - - - - - - - 12.6 - 0.0
27/09:00pm N 35 43 - - - - - - - 12.4 - 0.0
27/08:30pm NNW 33 39 - - - - - - - 12.3 - 0.0
27/08:00pm N 37 42 - - - - - - - 12.4 - 0.0
27/07:30pm N 39 45 - - - - - - - 12.4 - 0.0
27/07:00pm N 41 46 - - - - - - - 12.4 - 0.0
27/06:36pm N 38 48 - - - - - - - 12.5 - 0.0
27/06:30pm N 36 44 - - - - - - - 12.5 - 0.0
27/06:20pm N 35 45 - - - - - - - 12.6 - 0.0
27/06:00pm N 37 45 - - - - - - - 12.7 - 0.0
27/05:37pm N 37 47 - - - - - - - 12.5 - 0.0
27/05:30pm NNW 35 42 - - - - - - - 12.5 - 0.0
27/05:00pm N 37 44 - - - - - - - 12.6 - 0.0
27/04:30pm N 45 57 - - - - - - - 12.2 - 0.0
27/04:20pm N 42 55 - - - - - - - 12.2 - 0.0
27/04:00pm N 41 49 - - - - - - - 12.3 - 0.0
27/03:30pm N 41 51 - - - - - - - 12.5 - 0.0
27/03:21pm N 44 54 - - - - - - - 11.9 - 0.0
27/03:10pm N 44 54 - - - - - - - 12.0 - 0.0
27/03:08pm N 43 49 - - - - - - - 12.2 - 0.0
27/03:00pm N 39 47 - - - - - - - 12.0 - 0.0
27/02:58pm N 37 47 - - - - - - - 11.8 - 0.0
27/02:48pm N 39 49 - - - - - - - 11.8 - 0.0
27/02:30pm N 45 52 - - - - - - - 11.7 - 0.0
27/02:00pm N 44 49 - - - - - - - 12.5 - 0.0
27/01:30pm N 44 51 - - - - - - - 12.6 - 0.0
27/01:00pm N 43 51 - - - - - - - 12.8 - 0.0
27/12:30pm N 41 49 - - - - - - - 12.5 - 0.0
27/12:07pm N 39 49 - - - - - - - 12.4 - 0.0
27/12:00pm N 39 47 - - - - - - - 12.5 - 0.0
27/11:30am N 41 48 - - - - - - - 12.5 - 0.0
27/11:00am N 44 50 - - - - - - - 12.5 - 0.0
27/10:30am N 42 48 - - - - - - - 12.6 - 0.0
27/10:00am N 41 47 - - - - - - - 12.3 - 0.0
27/09:30am N 43 54 - - - - - - - 11.1 - 0.0
27/09:27am N 43 54 - - - - - - - 11.4 - 0.0
27/09:14am N 37 50 - - - - - - - 12.3 - 0.0
27/09:00am N 36 43 2 1.5 15 SW 8 Partly cloudy Distant precip. 12.1 - 0.6
27/08:30am N 38 43 - - - - - - - 11.3 - 0.6
27/08:00am N 35 43 - - - - - - - 12.1 - 0.6
27/07:37am N 35 45 - - - - - - - 12.1 - 0.6
27/07:30am N 39 45 - - - - - - - 12.3 - 0.6
27/07:00am N 37 43 - - - - - - - 12.2 - 0.6
27/06:31am N 43 53 - - - - - - - 12.4 - 0.6
27/06:30am N 44 53 - - - - - - - 12.5 - 0.6
27/06:17am N 38 48 - - - - - - - 12.4 - 0.6
27/06:00am N 35 44 1 1.5 15 SW 5 Cloudy Haze 12.3 - 0.6
27/05:57am N 36 44 - - - - - - - 12.3 - 0.6
27/05:30am N 44 48 - - - - - - - 12.2 - 0.6
27/05:00am N 46 51 - - - - - - - 12.2 - 0.6
27/04:59am N 46 51 - - - - - - - 12.2 - 0.6
27/04:47am N 43 49 - - - - - - - 12.4 - 0.6
27/04:30am N 41 48 - - - - - - - 12.2 - 0.6
27/04:14am NNW 39 43 - - - - - - - 12.1 - 0.6
27/04:00am NW 37 43 - - - - - - - 11.8 - 0.6
27/03:43am NNW 36 43 - - - - - - - 12.0 - 0.4
27/03:30am NNW 34 40 - - - - - - - 12.0 - 0.2
27/03:03am NNW 27 37 - - - - - - - 12.0 - 0.0
27/03:00am NNW 28 37 - - - - - - - 12.1 - 0.0
27/02:31am NNW 26 37 - - - - - - - 12.2 - 0.0
27/02:30am NNW 26 34 - - - - - - - 12.3 - 0.0
27/02:17am NNW 24 38 - - - - - - - 12.1 - 0.0
27/02:00am NNW 23 30 - - - - - - - 12.4 - 0.0
27/01:30am NNW 25 32 - - - - - - - 12.3 - 0.0
27/01:00am NNW 26 35 - - - - - - - 12.1 - 0.0
27/12:30am NNW 23 31 - - - - - - - 11.9 - 0.0
27/12:00am NNW 21 31 - - - - - - - 12.2 - 0.0
 
Date/Time
EST
Wind Sea
Height
m
Swell Vis
km
Cloud Weather Temp
°C
Press
MSL
hPa
Rain since
9am
mm
Dir  Spd
kts
Gust
kts
Height
m
Period
s
Dir
26/11:30pm NNW 22 28 - - - - - - - 11.9 - 0.0
26/11:00pm NNW 20 26 - - - - - - - 12.0 1017.9 0.0
26/10:30pm NNW 20 26 - - - - - - - 12.0 1018.2 0.0
26/10:00pm NNW 20 25 - - - - - - - 12.1 1018.5 0.0
26/09:30pm NNW 20 27 - - - - - - - 12.3 1018.8 0.0
26/09:00pm NNW 19 24 - - - - - - - 12.4 1019.2 0.0
26/08:30pm NNW 16 23 - - - - - - - 12.5 1019.2 0.0
26/08:00pm NNW 14 18 - - - - - - - 12.2 1019.5 0.0
26/07:30pm NNW 13 18 - - - - - - - 12.3 1019.8 0.0
26/07:00pm NNW 13 18 - - - - - - - 12.4 1019.9 0.0
26/06:30pm N 7 11 - - - - - - - 11.9 1020.2 0.0
26/06:00pm NNW 8 12 - - - - - - - 12.2 1020.5 0.0
26/05:30pm N 8 12 - - - - - - - 12.4 1020.7 0.0
26/05:00pm N 8 10 - - - - - - - 12.3 1020.8 0.0
26/04:30pm N 8 11 - - - - - - - 12.4 1021.0 0.0
26/04:00pm N 9 14 - - - - - - - 12.4 1021.3 0.0
26/03:30pm NNE 9 13 - - - - - - - 12.4 1021.5 0.0
26/03:00pm N 6 11 - - - - - - - 12.8 1021.8 0.0
26/02:30pm N 6 8 - - - - - - - 12.4 1022.1 0.0
26/02:00pm N 6 8 - - - - - - - 12.5 1022.4 0.0
26/01:30pm NNW 5 7 - - - - - - - 12.3 1022.8 0.0
26/01:00pm N 5 7 - - - - - - - 12.0 1023.1 0.0
26/12:30pm NNW 7 9 - - - - - - - 11.8 1023.5 0.0
26/12:00pm NNW 8 11 - - - - - - - 11.7 1023.9 0.0
26/11:30am NNW 8 11 - - - - - - - 11.6 1024.4 0.0
26/11:00am N 8 11 - - - - - - - 11.1 1025.0 0.0
26/10:30am N 6 9 - - - - - - - 11.0 1025.4 0.0
26/10:00am N 1 5 - - - - - - - 10.3 1025.6 0.0
26/09:30am NNW 1 3 - - - - - - - 10.0 1026.1 0.0
26/09:00am N 5 6 <0.5 1.5 12 SW 25 Mostly cloudy Haze 9.5 1026.2 0.0

Other formats

Comma delimited format used in spreadsheet applications
http://www.bom.gov.au/fwo/IDT60701/IDT60701.94962.axf

JavaScript Object Notation format (JSON) in row-major order
http://www.bom.gov.au/fwo/IDT60701/IDT60701.94962.json

Data quality

Most of these data are generated automatically and are frequently updated. Quality checks on data are not normally performed. It is possible for incorrect values to appear. Refer to information at About Latest Weather Observations and please check the disclaimer before using these data.